sensor_id;sensor_type;location;lat;lon;timestamp;pressure;altitude;pressure_sealevel;temperature;humidity
74435;BME280;62867;52.038;29.256;2024-03-08T00:00:16;1025.6;;;0.4;58.3
74435;BME280;62867;52.038;29.256;2024-03-08T00:04:56;1025.6;;;0.4;58.3
74435;BME280;62867;52.038;29.256;2024-03-08T00:10:16;1025.5;;;0.4;58.3
74435;BME280;62867;52.038;29.256;2024-03-08T00:14:40;1025.5;;;0.4;58.3
74435;BME280;62867;52.038;29.256;2024-03-08T00:19:27;1025.5;;;0.4;58.2
74435;BME280;62867;52.038;29.256;2024-03-08T00:24:39;1025.4;;;0.4;58.4
74435;BME280;62867;52.038;29.256;2024-03-08T00:30:00;1025.4;;;0.4;58.4
74435;BME280;62867;52.038;29.256;2024-03-08T00:34:28;1025.3;;;0.4;58.7
74435;BME280;62867;52.038;29.256;2024-03-08T00:39:32;1025.3;;;0.4;58.8
74435;BME280;62867;52.038;29.256;2024-03-08T00:44:28;1025.3;;;0.4;58.8
74435;BME280;62867;52.038;29.256;2024-03-08T00:50:06;1025.2;;;0.4;58.7
74435;BME280;62867;52.038;29.256;2024-03-08T00:54:54;1025.2;;;0.4;58.7
74435;BME280;62867;52.038;29.256;2024-03-08T00:59:40;1025.1;;;0.4;59
74435;BME280;62867;52.038;29.256;2024-03-08T01:05:16;1025.1;;;0.4;58.7
74435;BME280;62867;52.038;29.256;2024-03-08T01:09:36;1025.1;;;0.4;58.7
74435;BME280;62867;52.038;29.256;2024-03-08T01:14:54;1025.1;;;0.4;58.9
74435;BME280;62867;52.038;29.256;2024-03-08T01:19:52;1025;;;0.3;58.9
74435;BME280;62867;52.038;29.256;2024-03-08T01:25:00;1025;;;0.3;59.2
74435;BME280;62867;52.038;29.256;2024-03-08T01:29:28;1024.9;;;0.3;59.2
74435;BME280;62867;52.038;29.256;2024-03-08T01:35:16;1024.8;;;0.4;59.5
74435;BME280;62867;52.038;29.256;2024-03-08T01:39:40;1024.8;;;0.4;59.5
74435;BME280;62867;52.038;29.256;2024-03-08T01:44:58;1024.8;;;0.5;59.6
74435;BME280;62867;52.038;29.256;2024-03-08T01:49:42;1024.7;;;0.5;59.3
74435;BME280;62867;52.038;29.256;2024-03-08T01:55:14;1024.6;;;0.6;59.3
74435;BME280;62867;52.038;29.256;2024-03-08T01:59:34;1024.6;;;0.6;59.3
74435;BME280;62867;52.038;29.256;2024-03-08T02:04:34;1024.6;;;0.6;59.2
74435;BME280;62867;52.038;29.256;2024-03-08T02:09:34;1024.6;;;0.6;59.1
74435;BME280;62867;52.038;29.256;2024-03-08T02:14:28;1024.6;;;0.6;59.2
74435;BME280;62867;52.038;29.256;2024-03-08T02:19:36;1024.6;;;0.6;59.2
74435;BME280;62867;52.038;29.256;2024-03-08T02:25:14;1024.6;;;0.6;59.8
74435;BME280;62867;52.038;29.256;2024-03-08T02:29:54;1024.6;;;0.6;59.8
74435;BME280;62867;52.038;29.256;2024-03-08T02:34:44;1024.6;;;0.6;59.7
74435;BME280;62867;52.038;29.256;2024-03-08T02:40:16;1024.5;;;0.7;59.4
74435;BME280;62867;52.038;29.256;2024-03-08T02:45:06;1024.5;;;0.6;59.4
74435;BME280;62867;52.038;29.256;2024-03-08T02:50:14;1024.4;;;0.7;59.4
74435;BME280;62867;52.038;29.256;2024-03-08T02:54:28;1024.4;;;0.7;59.4
74435;BME280;62867;52.038;29.256;2024-03-08T03:00:00;1024.3;;;0.7;59.3
74435;BME280;62867;52.038;29.256;2024-03-08T03:04:34;1024.3;;;0.7;59.3
74435;BME280;62867;52.038;29.256;2024-03-08T03:10:16;1024.3;;;0.7;59.1
74435;BME280;62867;52.038;29.256;2024-03-08T03:14:58;1024.3;;;0.7;59.1
74435;BME280;62867;52.038;29.256;2024-03-08T03:20:02;1024.2;;;0.7;59
74435;BME280;62867;52.038;29.256;2024-03-08T03:24:28;1024.2;;;0.7;59.3
74435;BME280;62867;52.038;29.256;2024-03-08T03:30:16;1024.1;;;0.8;59.6
74435;BME280;62867;52.038;29.256;2024-03-08T03:34:34;1024.1;;;0.8;59.6
74435;BME280;62867;52.038;29.256;2024-03-08T03:39:28;1024.1;;;0.8;59.6
74435;BME280;62867;52.038;29.256;2024-03-08T03:44:43;1024;;;0.8;59.5
74435;BME280;62867;52.038;29.256;2024-03-08T03:50:06;1024;;;0.8;59.3
74435;BME280;62867;52.038;29.256;2024-03-08T03:54:52;1024;;;0.8;59.3
74435;BME280;62867;52.038;29.256;2024-03-08T04:00:16;1024;;;0.8;59.3
74435;BME280;62867;52.038;29.256;2024-03-08T04:05:14;1023.9;;;0.7;59.3
74435;BME280;62867;52.038;29.256;2024-03-08T04:09:54;1023.9;;;0.7;59.3
74435;BME280;62867;52.038;29.256;2024-03-08T04:14:36;1023.9;;;0.7;59.3
74435;BME280;62867;52.038;29.256;2024-03-08T04:19:28;1023.9;;;0.7;59.1
74435;BME280;62867;52.038;29.256;2024-03-08T04:25:02;1023.9;;;0.7;59.4
74435;BME280;62867;52.038;29.256;2024-03-08T04:29:28;1023.9;;;0.6;59.5
74435;BME280;62867;52.038;29.256;2024-03-08T04:35:16;1023.8;;;0.7;59.8
74435;BME280;62867;52.038;29.256;2024-03-08T04:39:44;1023.8;;;0.7;59.8
74435;BME280;62867;52.038;29.256;2024-03-08T04:45:06;1023.7;;;0.7;59.7
74435;BME280;62867;52.038;29.256;2024-03-08T04:49:42;1023.7;;;0.7;59.7
74435;BME280;62867;52.038;29.256;2024-03-08T04:55:16;1023.6;;;0.8;59.7
74435;BME280;62867;52.038;29.256;2024-03-08T04:59:40;1023.6;;;0.8;59.7
74435;BME280;62867;52.038;29.256;2024-03-08T05:04:48;1023.6;;;0.8;59.6
74435;BME280;62867;52.038;29.256;2024-03-08T05:10:14;1023.6;;;1;59.4
74435;BME280;62867;52.038;29.256;2024-03-08T05:14:40;1023.6;;;1;59.4
74435;BME280;62867;52.038;29.256;2024-03-08T05:19:40;1023.6;;;1.1;59.7
74435;BME280;62867;52.038;29.256;2024-03-08T05:24:48;1023.5;;;1.3;59.5
74435;BME280;62867;52.038;29.256;2024-03-08T05:29:28;1023.5;;;1.6;59.2
74435;BME280;62867;52.038;29.256;2024-03-08T05:34:34;1023.5;;;1.8;59
74435;BME280;62867;52.038;29.256;2024-03-08T05:40:14;1023.5;;;2.3;58.3
74435;BME280;62867;52.038;29.256;2024-03-08T05:44:46;1023.5;;;2.3;58.3
74435;BME280;62867;52.038;29.256;2024-03-08T05:50:14;1023.4;;;2.7;57.5
74435;BME280;62867;52.038;29.256;2024-03-08T05:54:54;1023.4;;;2.7;57.5
74435;BME280;62867;52.038;29.256;2024-03-08T06:00:06;1023.4;;;3.1;56.1
74435;BME280;62867;52.038;29.256;2024-03-08T06:05:00;1023.4;;;3.1;56.1
74435;BME280;62867;52.038;29.256;2024-03-08T06:10:06;1023.4;;;3.4;55.4
74435;BME280;62867;52.038;29.256;2024-03-08T06:15:18;1023.5;;;3.6;55.1
74435;BME280;62867;52.038;29.256;2024-03-08T06:20:06;1023.5;;;3.8;55.1
74435;BME280;62867;52.038;29.256;2024-03-08T06:25:02;1023.5;;;3.8;55.1
74435;BME280;62867;52.038;29.256;2024-03-08T06:30:16;1023.4;;;4.2;53.9
74435;BME280;62867;52.038;29.256;2024-03-08T06:35:16;1023.4;;;4.3;53.6
74435;BME280;62867;52.038;29.256;2024-03-08T06:39:56;1023.4;;;4.3;53.6
74435;BME280;62867;52.038;29.256;2024-03-08T06:45:02;1023.4;;;4.5;53.4
74435;BME280;62867;52.038;29.256;2024-03-08T06:49:42;1023.4;;;4.6;52.4
74435;BME280;62867;52.038;29.256;2024-03-08T06:55:02;1023.3;;;4.8;51.6
74435;BME280;62867;52.038;29.256;2024-03-08T06:59:46;1023.3;;;5;51.1
74435;BME280;62867;52.038;29.256;2024-03-08T07:04:28;1023.3;;;5.2;50.4
74435;BME280;62867;52.038;29.256;2024-03-08T07:09:44;1023.2;;;5.4;50.4
74435;BME280;62867;52.038;29.256;2024-03-08T07:15:08;1023.2;;;5.8;49.7
74435;BME280;62867;52.038;29.256;2024-03-08T07:19:46;1023.2;;;5.8;49.7
74435;BME280;62867;52.038;29.256;2024-03-08T07:25:16;1023.2;;;6.2;48.9
74435;BME280;62867;52.038;29.256;2024-03-08T07:29:56;1023.2;;;6.2;48.9
74435;BME280;62867;52.038;29.256;2024-03-08T07:35:16;1023.2;;;6.6;48.6
74435;BME280;62867;52.038;29.256;2024-03-08T07:39:46;1023.2;;;6.6;48.6
74435;BME280;62867;52.038;29.256;2024-03-08T07:45:06;1023.1;;;7;47
74435;BME280;62867;52.038;29.256;2024-03-08T07:50:16;1023.1;;;7.2;46.6
74435;BME280;62867;52.038;29.256;2024-03-08T07:55:16;1023.1;;;7.3;46.1
74435;BME280;62867;52.038;29.256;2024-03-08T08:00:02;1023.1;;;7.3;46.1
74435;BME280;62867;52.038;29.256;2024-03-08T08:05:16;1023;;;7.8;45.7
74435;BME280;62867;52.038;29.256;2024-03-08T08:10:16;1023;;;8;45.3
74435;BME280;62867;52.038;29.256;2024-03-08T08:14:56;1023;;;8;45.3
74435;BME280;62867;52.038;29.256;2024-03-08T08:20:16;1022.9;;;8.4;44.3
74435;BME280;62867;52.038;29.256;2024-03-08T08:24:34;1022.9;;;8.4;44.3
74435;BME280;62867;52.038;29.256;2024-03-08T08:29:34;1023;;;8.6;43.9
74435;BME280;62867;52.038;29.256;2024-03-08T08:34:28;1022.9;;;8.8;43.7
74435;BME280;62867;52.038;29.256;2024-03-08T08:39:48;1022.9;;;9;42.5
74435;BME280;62867;52.038;29.256;2024-03-08T08:45:02;1022.8;;;9.2;42
74435;BME280;62867;52.038;29.256;2024-03-08T08:49:34;1022.7;;;9.3;41.7
74435;BME280;62867;52.038;29.256;2024-03-08T08:54:46;1022.7;;;9.6;40.8
74435;BME280;62867;52.038;29.256;2024-03-08T09:00:06;1022.6;;;9.9;38.5
74435;BME280;62867;52.038;29.256;2024-03-08T09:04:58;1022.6;;;9.9;38.5
74435;BME280;62867;52.038;29.256;2024-03-08T09:09:28;1022.6;;;10.2;37.7
74435;BME280;62867;52.038;29.256;2024-03-08T09:14:58;1022.6;;;10.4;37.4
74435;BME280;62867;52.038;29.256;2024-03-08T09:20:06;1022.5;;;10.8;37.6
74435;BME280;62867;52.038;29.256;2024-03-08T09:25:02;1022.5;;;10.8;37.6
74435;BME280;62867;52.038;29.256;2024-03-08T09:29:52;1022.5;;;10.9;37.2
74435;BME280;62867;52.038;29.256;2024-03-08T09:35:02;1022.5;;;11;37.1
74435;BME280;62867;52.038;29.256;2024-03-08T09:39:52;1022.4;;;11.1;36.5
74435;BME280;62867;52.038;29.256;2024-03-08T09:45:16;1022.3;;;11.5;34.6
74435;BME280;62867;52.038;29.256;2024-03-08T09:50:00;1022.3;;;11.5;34.6
74435;BME280;62867;52.038;29.256;2024-03-08T09:55:02;1022.2;;;11.6;34.5
74435;BME280;62867;52.038;29.256;2024-03-08T09:59:42;1022.2;;;11.7;34.4
74435;BME280;62867;52.038;29.256;2024-03-08T10:05:16;1022.2;;;12;33.9
74435;BME280;62867;52.038;29.256;2024-03-08T10:09:34;1022.2;;;12;33.9
74435;BME280;62867;52.038;29.256;2024-03-08T10:14:54;1022.2;;;12.2;33.9
74435;BME280;62867;52.038;29.256;2024-03-08T10:20:16;1022;;;12.6;33.8
74435;BME280;62867;52.038;29.256;2024-03-08T10:24:40;1022;;;12.6;33.8
74435;BME280;62867;52.038;29.256;2024-03-08T10:29:28;1022;;;12.7;33.7
74435;BME280;62867;52.038;29.256;2024-03-08T10:35:16;1021.9;;;13;31.9
74435;BME280;62867;52.038;29.256;2024-03-08T10:40:16;1021.8;;;13.1;31.9
74435;BME280;62867;52.038;29.256;2024-03-08T10:44:32;1021.8;;;13.1;31.9
74435;BME280;62867;52.038;29.256;2024-03-08T10:50:08;1021.8;;;13.3;31.6
74435;BME280;62867;52.038;29.256;2024-03-08T10:54:28;1021.8;;;13.3;31.6
74435;BME280;62867;52.038;29.256;2024-03-08T11:00:07;1021.7;;;13.5;30.8
74435;BME280;62867;52.038;29.256;2024-03-08T11:04:52;1021.7;;;13.7;30.3
74435;BME280;62867;52.038;29.256;2024-03-08T11:10:18;1021.5;;;14;30.6
74435;BME280;62867;52.038;29.256;2024-03-08T11:14:52;1021.5;;;14;30.6
74435;BME280;62867;52.038;29.256;2024-03-08T11:20:16;1021.5;;;14.6;30.2
74435;BME280;62867;52.038;29.256;2024-03-08T11:24:36;1021.5;;;14.6;30.2
74435;BME280;62867;52.038;29.256;2024-03-08T11:29:33;1021.4;;;14.7;30
74435;BME280;62867;52.038;29.256;2024-03-08T11:34:43;1021.4;;;14.9;29.4
74435;BME280;62867;52.038;29.256;2024-03-08T11:39:56;1021.3;;;15;28.6
74435;BME280;62867;52.038;29.256;2024-03-08T11:44:54;1021.3;;;15.2;28.7
74435;BME280;62867;52.038;29.256;2024-03-08T11:49:28;1021.3;;;15.4;28.1
74435;BME280;62867;52.038;29.256;2024-03-08T11:55:02;1021.2;;;15.8;27.5
74435;BME280;62867;52.038;29.256;2024-03-08T11:59:34;1021.2;;;16.1;27.1
74435;BME280;62867;52.038;29.256;2024-03-08T12:04:56;1021.1;;;16.4;27.5
74435;BME280;62867;52.038;29.256;2024-03-08T12:10:14;1021.1;;;16.5;27.3
74435;BME280;62867;52.038;29.256;2024-03-08T12:15:16;1021;;;18.9;25.7
74435;BME280;62867;52.038;29.256;2024-03-08T12:19:28;1021;;;18.9;25.7
74435;BME280;62867;52.038;29.256;2024-03-08T12:25:06;1020.9;;;20.7;23.4
74435;BME280;62867;52.038;29.256;2024-03-08T12:30:22;1020.9;;;21.4;22.4
74435;BME280;62867;52.038;29.256;2024-03-08T12:35:07;1020.9;;;20.9;22.5
74435;BME280;62867;52.038;29.256;2024-03-08T12:39:29;1020.9;;;20.9;22.5
74435;BME280;62867;52.038;29.256;2024-03-08T12:45:06;1020.8;;;20;22.1
74435;BME280;62867;52.038;29.256;2024-03-08T12:50:04;1020.7;;;19.9;23
74435;BME280;62867;52.038;29.256;2024-03-08T12:55:06;1020.6;;;19.4;23.6
74435;BME280;62867;52.038;29.256;2024-03-08T12:59:50;1020.6;;;19.4;23.6
74435;BME280;62867;52.038;29.256;2024-03-08T13:05:18;1020.5;;;19.7;23.2
74435;BME280;62867;52.038;29.256;2024-03-08T13:09:28;1020.5;;;19.7;23.2
74435;BME280;62867;52.038;29.256;2024-03-08T13:14:58;1020.4;;;19;23.5
74435;BME280;62867;52.038;29.256;2024-03-08T13:20:18;1020.3;;;17.6;24
74435;BME280;62867;52.038;29.256;2024-03-08T13:24:28;1020.3;;;17.6;24
74435;BME280;62867;52.038;29.256;2024-03-08T13:29:28;1020.3;;;17;25
74435;BME280;62867;52.038;29.256;2024-03-08T13:34:28;1020.2;;;15.8;25.9
74435;BME280;62867;52.038;29.256;2024-03-08T13:39:28;1020.2;;;14.5;27.1
74435;BME280;62867;52.038;29.256;2024-03-08T13:44:35;1020.2;;;13.5;27.8
74435;BME280;62867;52.038;29.256;2024-03-08T13:49:56;1020.2;;;12.7;28.8
74435;BME280;62867;52.038;29.256;2024-03-08T13:54:28;1020.2;;;12;29.8
74435;BME280;62867;52.038;29.256;2024-03-08T14:00:18;1020.2;;;11;30.7
74435;BME280;62867;52.038;29.256;2024-03-08T14:05:18;1020.2;;;10.7;31.4
74435;BME280;62867;52.038;29.256;2024-03-08T14:10:18;1020.2;;;10.5;32.1
74435;BME280;62867;52.038;29.256;2024-03-08T14:14:28;1020.2;;;10.5;32.1
74435;BME280;62867;52.038;29.256;2024-03-08T14:20:06;1020.1;;;10;33.6
74435;BME280;62867;52.038;29.256;2024-03-08T14:25:18;1020.1;;;9.8;34.4
74435;BME280;62867;52.038;29.256;2024-03-08T14:30:18;1020.1;;;9.6;35.1
74435;BME280;62867;52.038;29.256;2024-03-08T14:34:30;1020.1;;;9.6;35.1
74435;BME280;62867;52.038;29.256;2024-03-08T14:40:18;1020.1;;;9.3;36.5
74435;BME280;62867;52.038;29.256;2024-03-08T14:45:16;1020.1;;;9.1;36.3
74435;BME280;62867;52.038;29.256;2024-03-08T14:49:58;1020.1;;;9.1;36.3
74435;BME280;62867;52.038;29.256;2024-03-08T14:55:19;1020;;;8.9;36.8
74435;BME280;62867;52.038;29.256;2024-03-08T14:59:44;1020;;;8.9;36.8
74435;BME280;62867;52.038;29.256;2024-03-08T15:05:04;1019.9;;;8.7;37.2
74435;BME280;62867;52.038;29.256;2024-03-08T15:10:06;1019.9;;;8.6;38
74435;BME280;62867;52.038;29.256;2024-03-08T15:14:28;1019.9;;;8.6;38
74435;BME280;62867;52.038;29.256;2024-03-08T15:19:35;1020;;;8.4;38.5
74435;BME280;62867;52.038;29.256;2024-03-08T15:24:50;1019.9;;;8.2;39.1
74435;BME280;62867;52.038;29.256;2024-03-08T15:29:28;1019.9;;;8.1;39.7
74435;BME280;62867;52.038;29.256;2024-03-08T15:35:16;1019.9;;;7.8;40.9
74435;BME280;62867;52.038;29.256;2024-03-08T15:39:58;1019.9;;;7.8;40.9
74435;BME280;62867;52.038;29.256;2024-03-08T15:45:18;1019.9;;;7.5;41.5
74435;BME280;62867;52.038;29.256;2024-03-08T15:49:46;1019.9;;;7.5;41.5
74435;BME280;62867;52.038;29.256;2024-03-08T15:55:06;1019.9;;;7.2;42.3
74435;BME280;62867;52.038;29.256;2024-03-08T16:00:18;1020;;;7;42.8
74435;BME280;62867;52.038;29.256;2024-03-08T16:05:18;1020;;;6.9;43.2
74435;BME280;62867;52.038;29.256;2024-03-08T16:10:04;1020;;;6.6;43.5
74435;BME280;62867;52.038;29.256;2024-03-08T16:15:18;1020.1;;;6.4;43.6
74435;BME280;62867;52.038;29.256;2024-03-08T16:20:18;1020.1;;;6.2;44.4
74435;BME280;62867;52.038;29.256;2024-03-08T16:24:58;1020.1;;;6.2;44.4
74435;BME280;62867;52.038;29.256;2024-03-08T16:30:16;1020.2;;;5.8;45.3
74435;BME280;62867;52.038;29.256;2024-03-08T16:34:40;1020.2;;;5.8;45.3
74435;BME280;62867;52.038;29.256;2024-03-08T16:39:28;1020.2;;;5.6;46
74435;BME280;62867;52.038;29.256;2024-03-08T16:44:28;1020.2;;;5.5;46
74435;BME280;62867;52.038;29.256;2024-03-08T16:49:28;1020.2;;;5.3;46.2
74435;BME280;62867;52.038;29.256;2024-03-08T16:54:42;1020.3;;;5.2;46.4
74435;BME280;62867;52.038;29.256;2024-03-08T16:59:40;1020.3;;;5.1;46.4
74435;BME280;62867;52.038;29.256;2024-03-08T17:04:28;1020.2;;;5;46.6
74435;BME280;62867;52.038;29.256;2024-03-08T17:10:16;1020.2;;;4.7;47
74435;BME280;62867;52.038;29.256;2024-03-08T17:14:50;1020.2;;;4.7;47
74435;BME280;62867;52.038;29.256;2024-03-08T17:19:46;1020.2;;;4.6;47.5
74435;BME280;62867;52.038;29.256;2024-03-08T17:25:18;1020.2;;;4.4;48.3
74435;BME280;62867;52.038;29.256;2024-03-08T17:30:06;1020.2;;;4.3;48.6
74435;BME280;62867;52.038;29.256;2024-03-08T17:35:04;1020.2;;;4.2;49
74435;BME280;62867;52.038;29.256;2024-03-08T17:39:52;1020.2;;;4.2;49
74435;BME280;62867;52.038;29.256;2024-03-08T17:45:02;1020.3;;;4.1;49.1
74435;BME280;62867;52.038;29.256;2024-03-08T17:49:46;1020.3;;;4;49.3
74435;BME280;62867;52.038;29.256;2024-03-08T17:55:18;1020.2;;;3.9;49.5
74435;BME280;62867;52.038;29.256;2024-03-08T17:59:38;1020.2;;;3.9;49.5
74435;BME280;62867;52.038;29.256;2024-03-08T18:04:54;1020.2;;;3.8;49.4
74435;BME280;62867;52.038;29.256;2024-03-08T18:09:34;1020.2;;;3.8;49.6
74435;BME280;62867;52.038;29.256;2024-03-08T18:14:58;1020.2;;;3.7;50.1
74435;BME280;62867;52.038;29.256;2024-03-08T18:19:56;1020.2;;;3.6;50.4
74435;BME280;62867;52.038;29.256;2024-03-08T18:24:34;1020.2;;;3.6;50.7
74435;BME280;62867;52.038;29.256;2024-03-08T18:29:48;1020.2;;;3.6;50.8
74435;BME280;62867;52.038;29.256;2024-03-08T18:34:28;1020.2;;;3.5;51.5
74435;BME280;62867;52.038;29.256;2024-03-08T18:39:35;1020.1;;;3.5;51.7
74435;BME280;62867;52.038;29.256;2024-03-08T18:45:18;1020.2;;;3.5;51.8
74435;BME280;62867;52.038;29.256;2024-03-08T18:50:17;1020.2;;;3.5;52.1
74435;BME280;62867;52.038;29.256;2024-03-08T18:54:46;1020.2;;;3.5;52.1
74435;BME280;62867;52.038;29.256;2024-03-08T19:00:07;1020.2;;;3.5;51.9
74435;BME280;62867;52.038;29.256;2024-03-08T19:05:06;1020.1;;;3.5;51.9
74435;BME280;62867;52.038;29.256;2024-03-08T19:09:58;1020.1;;;3.5;51.9
74435;BME280;62867;52.038;29.256;2024-03-08T19:14:34;1020.1;;;3.5;52.3
74435;BME280;62867;52.038;29.256;2024-03-08T19:20:07;1020.1;;;3.4;52.9
74435;BME280;62867;52.038;29.256;2024-03-08T19:24:34;1020.1;;;3.4;52.9
74435;BME280;62867;52.038;29.256;2024-03-08T19:29:50;1020.1;;;3.4;52.8
74435;BME280;62867;52.038;29.256;2024-03-08T19:34:48;1020.1;;;3.4;53.3
74435;BME280;62867;52.038;29.256;2024-03-08T19:40:22;1020.1;;;3.4;53.4
74435;BME280;62867;52.038;29.256;2024-03-08T19:44:28;1020.1;;;3.4;53.4
74435;BME280;62867;52.038;29.256;2024-03-08T19:49:58;1020.1;;;3.4;53.2
74435;BME280;62867;52.038;29.256;2024-03-08T19:55:06;1020.1;;;3.4;53.2
74435;BME280;62867;52.038;29.256;2024-03-08T19:59:58;1020.1;;;3.4;53.2
74435;BME280;62867;52.038;29.256;2024-03-08T20:04:44;1020.1;;;3.5;53
74435;BME280;62867;52.038;29.256;2024-03-08T20:09:36;1020.1;;;3.4;53
74435;BME280;62867;52.038;29.256;2024-03-08T20:14:28;1020;;;3.4;53.3
74435;BME280;62867;52.038;29.256;2024-03-08T20:20:18;1020;;;3.4;53.8
74435;BME280;62867;52.038;29.256;2024-03-08T20:25:19;1020;;;3.4;53.8
74435;BME280;62867;52.038;29.256;2024-03-08T20:29:29;1020;;;3.4;53.8
74435;BME280;62867;52.038;29.256;2024-03-08T20:35:08;1020;;;3.4;54.1
74435;BME280;62867;52.038;29.256;2024-03-08T20:40:06;1020;;;3.4;53.8
74435;BME280;62867;52.038;29.256;2024-03-08T20:45:06;1020;;;3.3;54.1
74435;BME280;62867;52.038;29.256;2024-03-08T20:49:46;1020;;;3.3;54.1
74435;BME280;62867;52.038;29.256;2024-03-08T20:55:08;1020;;;3.3;54.4
74435;BME280;62867;52.038;29.256;2024-03-08T20:59:54;1020;;;3.3;54.4
74435;BME280;62867;52.038;29.256;2024-03-08T21:04:31;1020;;;3.3;54.2
74435;BME280;62867;52.038;29.256;2024-03-08T21:09:28;1019.9;;;3.2;54
74435;BME280;62867;52.038;29.256;2024-03-08T21:15:16;1019.9;;;3.1;54.5
74435;BME280;62867;52.038;29.256;2024-03-08T21:19:28;1019.9;;;3.1;54.5
74435;BME280;62867;52.038;29.256;2024-03-08T21:24:58;1020;;;3;54.6
74435;BME280;62867;52.038;29.256;2024-03-08T21:30:20;1020;;;2.8;55.1
74435;BME280;62867;52.038;29.256;2024-03-08T21:34:38;1020;;;2.8;55.1
74435;BME280;62867;52.038;29.256;2024-03-08T21:39:36;1020.1;;;2.7;55.4
74435;BME280;62867;52.038;29.256;2024-03-08T21:44:28;1020.1;;;2.7;55.6
74435;BME280;62867;52.038;29.256;2024-03-08T21:49:54;1020.1;;;2.7;55.4
74435;BME280;62867;52.038;29.256;2024-03-08T21:54:28;1020.1;;;2.7;55.5
74435;BME280;62867;52.038;29.256;2024-03-08T22:00:20;1020.1;;;2.6;55.6
74435;BME280;62867;52.038;29.256;2024-03-08T22:04:36;1020.1;;;2.6;55.6
74435;BME280;62867;52.038;29.256;2024-03-08T22:10:12;1020.1;;;2.5;56
74435;BME280;62867;52.038;29.256;2024-03-08T22:14:56;1020.1;;;2.5;56
74435;BME280;62867;52.038;29.256;2024-03-08T22:20:18;1020.1;;;2.4;56.5
74435;BME280;62867;52.038;29.256;2024-03-08T22:24:36;1020.1;;;2.4;56.5
74435;BME280;62867;52.038;29.256;2024-03-08T22:30:09;1020.2;;;2.4;56.9
74435;BME280;62867;52.038;29.256;2024-03-08T22:35:18;1020.2;;;2.3;57.2
74435;BME280;62867;52.038;29.256;2024-03-08T22:40:18;1020.3;;;2.4;57.1
74435;BME280;62867;52.038;29.256;2024-03-08T22:45:04;1020.2;;;2.4;57.2
74435;BME280;62867;52.038;29.256;2024-03-08T22:50:20;1020.2;;;2.5;57.3
74435;BME280;62867;52.038;29.256;2024-03-08T22:55:17;1020.2;;;2.6;57.2
74435;BME280;62867;52.038;29.256;2024-03-08T23:00:20;1020.2;;;2.7;57
74435;BME280;62867;52.038;29.256;2024-03-08T23:05:21;1020.2;;;2.9;57
74435;BME280;62867;52.038;29.256;2024-03-08T23:09:44;1020.2;;;2.9;57
74435;BME280;62867;52.038;29.256;2024-03-08T23:14:36;1020.1;;;3;57
74435;BME280;62867;52.038;29.256;2024-03-08T23:19:46;1020.1;;;3.1;57
74435;BME280;62867;52.038;29.256;2024-03-08T23:24:28;1020.2;;;3;57.1
74435;BME280;62867;52.038;29.256;2024-03-08T23:29:28;1020.2;;;3;57.2
74435;BME280;62867;52.038;29.256;2024-03-08T23:34:28;1020.2;;;2.9;57.3
74435;BME280;62867;52.038;29.256;2024-03-08T23:39:28;1020.2;;;2.8;57.2
74435;BME280;62867;52.038;29.256;2024-03-08T23:45:19;1020.2;;;2.6;57.1
74435;BME280;62867;52.038;29.256;2024-03-08T23:49:56;1020.2;;;2.6;57.1
74435;BME280;62867;52.038;29.256;2024-03-08T23:54:40;1020.2;;;2.5;57
